Terminal Aerodrome Forecast
Issued by NWS Twin Cities, MN

Home | Current Version | Previous Version | Text Only | Print | Product List | Glossary Off
Versions: 1 2 3 4 5 6 7 8 9 10 11 12 13 14 15

000
FTUS43 KMPX 141700
TAFEAU
TAF
KEAU 141740Z 1418/1518 24011G19KT P6SM BKN200
     FM150000 27004KT P6SM BKN120
     FM150500 VRB02KT P6SM SCT040 OVC070
     FM151500 32005KT P6SM BKN060=

USA.gov is the U.S. government's official web portal to all federal, state and local government web resources and services.